Masset Airport
CZMT : rendu visible

Aérodrome :











RETROUVEZ-NOUS SUR...

 
LOGIN :

S'inscrire | Disclaimer

   EN    FR    IT 

 









Légende :    VFR   VFR Marginal   IFR   IFR Intensif   IFR Très Intensif
Visi : 
Plafond : 
>= 8 km
>= 3000ft
5 à 8 km
1000 à 3000 ft
1500m à 5 km
500 à 1000 ft
800 à 1500m
200 à 500 ft
< 800m
< 200 ft
Symboles :   Orages  Brouillard  Fortes neiges  Fortes précipitations  Vent > 20 kt






- Altitude de l'aérodrome : 25 ft
- Code IATA : ZMT


CZMT - Masset

DERNIER METAR :
  • 210027Z 17018G29KT 15SM -RA FEW020 SCT030 BKN040 OVC050 06/01 A2984 RMK SC1SC2SC3SC2 SLP106

METARs EXPIRÉS :
  • 210000Z 17014G31KT 15SM FEW040 BKN070 BKN100 OVC180 06/01 A2985 RMK SC2AS3AC1CI2 SLP110
  • 202300Z 17023G33KT 15SM FEW006 FEW030 BKN080 BKN100 OVC180 06/01 A2989 RMK CF1SC2AS3AC1CI2 CF TR CONTRAIL SLP122
  • 202200Z 16018G24KT 15SM SCT040 BKN085 BKN120 OVC200 05/01 A2992 RMK SC3AS2AC1CS2 PRESFR SLP135

TAF TAF CZMT
Valide du 20 à 19h jusqu'au 21 à 02h UTC


201838Z 2019/2102 16010KT P6SM SCT015 BKN040 OVC200
TEMPO 2019/2021 BKN015 OVC040
BECMG 2019/2021 16020G30KT
FM202100 16020G30KT P6SM SCT015 BKN040 OVC100
TEMPO 2021/2102 P6SM -RA BKN015 OVC040 RMK NXT FCST WILL BE ISSUED AT 211615Z



MET'MAP, la Météo Aéronautique d'un coup d'oeil ! - Copyright ORBIFLY Décembre 2007 - Disclaimer

ORBIFLY MET'MAP TEAM :

Programmation & Développement : Alexandra Zaïnal
Sur une idée originale de : Baudouin d'Aumeries
Assistance à la programmation : Marc-Olivier Méhu
Soutien technique & logistique : Manuel Goepfert

Contact : metmap@orbifly.com




SOURCES & CREDITS :

   NOAA       Earth
Advisory